createdAt,value
2023-01-15T00:00:46.812Z,8.20
2023-01-15T00:03:16.105Z,8.18
2023-01-15T00:05:43.960Z,7.07
2023-01-15T00:08:11.728Z,7.75
2023-01-15T00:10:40.744Z,7.18
2023-01-15T00:13:08.580Z,6.90
2023-01-15T00:15:36.536Z,6.82
2023-01-15T00:18:04.577Z,7.35
2023-01-15T00:20:33.811Z,6.75
2023-01-15T00:23:01.754Z,6.80
2023-01-15T00:25:46.975Z,6.43
2023-01-15T00:28:15.188Z,7.07
2023-01-15T00:30:43.445Z,7.43
2023-01-15T00:33:11.646Z,6.60
2023-01-15T00:35:40.748Z,6.38
2023-01-15T00:38:08.656Z,6.82
2023-01-15T00:40:36.491Z,7.18
2023-01-15T00:43:04.269Z,6.03
2023-01-15T00:45:32.335Z,5.72
2023-01-15T00:48:00.545Z,5.95
2023-01-15T00:50:28.532Z,5.97
2023-01-15T00:52:57.693Z,6.10
2023-01-15T00:55:25.861Z,5.63
2023-01-15T00:57:54.561Z,5.47
2023-01-15T01:00:22.421Z,4.97
2023-01-15T01:02:50.217Z,6.32
2023-01-15T01:05:18.077Z,5.65
2023-01-15T01:07:45.929Z,5.28
2023-01-15T01:10:15.362Z,4.85
2023-01-15T01:12:43.124Z,5.00
2023-01-15T01:15:11.529Z,4.40
2023-01-15T01:17:39.985Z,4.15
2023-01-15T01:20:10.178Z,3.53
2023-01-15T01:22:39.377Z,3.35
2023-01-15T01:25:08.259Z,4.03
2023-01-15T01:27:37.602Z,3.80
2023-01-15T01:30:06.138Z,3.83
2023-01-15T01:32:33.893Z,3.92
2023-01-15T01:35:01.642Z,3.58
2023-01-15T01:37:29.445Z,3.50
2023-01-15T01:39:57.270Z,4.28
2023-01-15T01:42:25.999Z,3.45
2023-01-15T01:45:09.420Z,3.38
2023-01-15T01:47:37.953Z,3.70
2023-01-15T01:50:10.709Z,3.70
2023-01-15T01:52:43.324Z,3.58
2023-01-15T01:55:13.354Z,3.60
2023-01-15T01:57:43.405Z,3.50
2023-01-15T02:00:15.294Z,3.50
2023-01-15T02:02:47.211Z,3.17
2023-01-15T02:05:20.642Z,3.53
2023-01-15T02:07:48.552Z,3.08
2023-01-15T02:10:17.519Z,3.50
2023-01-15T02:12:50.834Z,3.45
2023-01-15T02:15:29.459Z,3.65
2023-01-15T02:18:04.079Z,3.42
2023-01-15T02:20:36.964Z,3.30
2023-01-15T02:23:43.387Z,3.75
2023-01-15T02:26:55.576Z,3.08
2023-01-15T02:29:31.804Z,3.47
2023-01-15T02:32:02.970Z,3.10
2023-01-15T02:34:34.338Z,3.45
2023-01-15T02:37:07.842Z,2.97
2023-01-15T02:39:40.021Z,3.30
2023-01-15T02:42:10.439Z,3.10
2023-01-15T02:44:43.999Z,3.17
2023-01-15T02:47:14.243Z,2.50
2023-01-15T02:49:44.033Z,3.22
2023-01-15T02:52:18.044Z,2.85
2023-01-15T02:54:49.957Z,3.28
2023-01-15T02:57:21.813Z,2.70
2023-01-15T02:59:52.937Z,2.60
2023-01-15T03:02:23.562Z,2.65
2023-01-15T03:04:55.783Z,2.55
2023-01-15T03:07:28.979Z,2.55
2023-01-15T03:09:58.691Z,2.50
2023-01-15T03:12:31.052Z,2.63
2023-01-15T03:15:09.997Z,2.20
2023-01-15T03:17:44.394Z,2.60
2023-01-15T03:20:18.066Z,2.92
2023-01-15T03:22:51.781Z,2.50
2023-01-15T03:25:25.754Z,2.40
2023-01-15T03:27:55.768Z,2.13
2023-01-15T03:30:25.188Z,2.53
2023-01-15T03:32:54.989Z,2.20
2023-01-15T03:35:46.236Z,2.40
2023-01-15T03:38:16.001Z,2.67
2023-01-15T03:40:53.714Z,2.35
2023-01-15T03:43:44.640Z,2.35
2023-01-15T03:46:27.641Z,2.47
2023-01-15T03:49:02.890Z,1.98
2023-01-15T03:51:38.842Z,2.33
2023-01-15T03:54:12.333Z,2.45
2023-01-15T03:56:55.462Z,2.40
2023-01-15T03:59:24.841Z,2.35
2023-01-15T04:01:55.295Z,2.25
2023-01-15T04:04:24.834Z,2.40
2023-01-15T04:06:52.831Z,2.40
2023-01-15T04:09:21.393Z,2.45
2023-01-15T04:11:49.183Z,2.72
2023-01-15T04:14:17.045Z,2.80
2023-01-15T04:16:45.013Z,2.88
2023-01-15T04:19:14.254Z,2.53
2023-01-15T04:21:42.083Z,2.60
2023-01-15T04:24:10.183Z,2.50
2023-01-15T04:26:38.033Z,2.65
2023-01-15T04:29:05.929Z,2.65
2023-01-15T04:31:36.111Z,2.85
2023-01-15T04:34:04.426Z,2.58
2023-01-15T04:36:35.613Z,2.53
2023-01-15T04:39:03.867Z,2.67
2023-01-15T04:41:49.710Z,2.55
2023-01-15T04:44:17.557Z,2.17
2023-01-15T04:46:47.867Z,2.35
2023-01-15T04:49:18.080Z,2.47
2023-01-15T04:51:47.815Z,2.50
2023-01-15T04:54:17.485Z,3.25
2023-01-15T04:56:48.233Z,2.10
2023-01-15T04:59:17.298Z,2.75
2023-01-15T05:02:01.972Z,2.42
2023-01-15T05:04:30.747Z,2.42
2023-01-15T05:06:59.986Z,2.28
2023-01-15T05:09:27.883Z,2.30
2023-01-15T05:11:55.654Z,2.40
2023-01-15T05:14:23.410Z,2.20
2023-01-15T05:16:51.101Z,2.30
2023-01-15T05:19:20.069Z,2.40
2023-01-15T05:21:48.068Z,2.03
2023-01-15T05:24:20.508Z,2.00
2023-01-15T05:26:48.327Z,2.03
2023-01-15T05:29:16.243Z,2.25
2023-01-15T05:31:45.252Z,1.95
2023-01-15T05:34:14.158Z,1.52
2023-01-15T05:36:42.549Z,1.75
2023-01-15T05:39:10.768Z,1.55
2023-01-15T05:41:54.149Z,1.60
2023-01-15T05:44:24.171Z,1.73
2023-01-15T05:46:53.423Z,1.60
2023-01-15T05:49:23.489Z,1.70
2023-01-15T05:51:52.611Z,1.63
2023-01-15T05:54:23.596Z,1.80
2023-01-15T05:56:53.310Z,1.70
2023-01-15T05:59:23.980Z,1.77
2023-01-15T06:01:51.975Z,1.63
2023-01-15T06:04:21.435Z,1.77
2023-01-15T06:06:50.410Z,1.35
2023-01-15T06:09:18.994Z,1.42
2023-01-15T06:11:47.426Z,1.50
2023-01-15T06:14:17.105Z,1.20
2023-01-15T06:16:44.944Z,1.20
2023-01-15T06:19:14.443Z,1.30
2023-01-15T06:21:42.859Z,1.33
2023-01-15T06:24:11.708Z,1.50
2023-01-15T06:26:40.354Z,1.30
2023-01-15T06:29:08.361Z,1.60
2023-01-15T06:31:37.635Z,1.45
2023-01-15T06:34:05.795Z,1.30
2023-01-15T06:36:33.577Z,1.40
2023-01-15T06:39:02.666Z,1.23
2023-01-15T06:41:49.251Z,1.38
2023-01-15T06:44:36.901Z,1.48
2023-01-15T06:47:24.801Z,1.30
2023-01-15T06:49:55.848Z,1.35
2023-01-15T06:52:26.007Z,1.63
2023-01-15T06:54:54.118Z,1.90
2023-01-15T06:57:22.158Z,2.03
2023-01-15T06:59:50.962Z,1.58
2023-01-15T07:02:21.884Z,1.60
2023-01-15T07:04:49.972Z,2.00
2023-01-15T07:07:19.687Z,1.50
2023-01-15T07:09:47.703Z,1.40
2023-01-15T07:12:15.779Z,1.50
2023-01-15T07:14:44.222Z,1.38
2023-01-15T07:17:12.369Z,1.50
2023-01-15T07:19:41.926Z,1.60
2023-01-15T07:22:11.066Z,1.70
2023-01-15T07:24:39.116Z,1.40
2023-01-15T07:27:07.165Z,1.63
2023-01-15T07:29:34.948Z,1.92
2023-01-15T07:32:02.993Z,1.52
2023-01-15T07:34:31.285Z,1.58
2023-01-15T07:37:00.419Z,1.77
2023-01-15T07:39:28.490Z,1.90
2023-01-15T07:42:14.015Z,1.80
2023-01-15T07:44:59.514Z,1.58
2023-01-15T07:47:46.150Z,2.55
2023-01-15T07:50:16.214Z,2.08
2023-01-15T07:52:45.473Z,1.83
2023-01-15T07:55:13.747Z,1.90
2023-01-15T07:57:42.383Z,2.42
2023-01-15T08:00:13.114Z,1.98
2023-01-15T08:02:41.574Z,2.58
2023-01-15T08:05:11.611Z,1.98
2023-01-15T08:07:40.556Z,1.90
2023-01-15T08:10:11.636Z,1.50
2023-01-15T08:12:57.833Z,2.10
2023-01-15T08:15:25.940Z,1.83
2023-01-15T08:17:54.264Z,3.55
2023-01-15T08:20:25.663Z,1.67
2023-01-15T08:22:53.801Z,2.20
2023-01-15T08:25:25.745Z,1.80
2023-01-15T08:27:54.362Z,1.80
2023-01-15T08:30:24.716Z,1.70
2023-01-15T08:32:53.312Z,2.00
2023-01-15T08:35:21.128Z,2.00
2023-01-15T08:37:48.983Z,2.03
2023-01-15T08:40:17.129Z,2.30
2023-01-15T08:42:46.249Z,1.70
2023-01-15T08:45:14.783Z,1.80
2023-01-15T08:47:42.758Z,2.78
2023-01-15T08:50:11.753Z,1.80
2023-01-15T08:52:39.713Z,2.40
2023-01-15T08:55:08.732Z,2.35
2023-01-15T08:57:37.663Z,1.95
2023-01-15T09:00:08.514Z,2.10
2023-01-15T09:02:36.348Z,2.25
2023-01-15T09:05:06.735Z,2.80
2023-01-15T09:07:35.432Z,2.15
2023-01-15T09:10:04.469Z,2.40
2023-01-15T09:12:32.734Z,2.33
2023-01-15T09:15:03.019Z,2.65
2023-01-15T09:17:33.329Z,1.98
2023-01-15T09:20:02.956Z,2.17
2023-01-15T09:22:31.089Z,2.28
2023-01-15T09:24:59.379Z,2.10
2023-01-15T09:27:27.536Z,1.70
2023-01-15T09:29:56.536Z,1.83
2023-01-15T09:32:24.444Z,1.95
2023-01-15T09:34:53.600Z,2.25
2023-01-15T09:37:21.545Z,1.95
2023-01-15T09:39:49.396Z,2.15
2023-01-15T09:42:33.773Z,2.05
2023-01-15T09:45:27.071Z,2.33
2023-01-15T09:48:14.595Z,2.17
2023-01-15T09:50:56.917Z,2.10
2023-01-15T09:53:45.158Z,1.80
2023-01-15T09:56:25.592Z,2.63
2023-01-15T09:58:54.671Z,2.42
2023-01-15T10:01:28.185Z,2.15
2023-01-15T10:04:03.043Z,2.15
2023-01-15T10:06:37.174Z,2.30
2023-01-15T10:09:12.491Z,2.42
2023-01-15T10:12:01.928Z,1.92
2023-01-15T10:14:39.574Z,2.55
2023-01-15T10:17:20.500Z,2.17
2023-01-15T10:19:48.488Z,2.42
2023-01-15T10:22:29.996Z,2.00
2023-01-15T10:24:59.537Z,2.13
2023-01-15T10:27:33.407Z,2.63
2023-01-15T10:30:08.765Z,2.40
2023-01-15T10:33:01.103Z,2.47
2023-01-15T10:35:40.924Z,1.83
2023-01-15T10:38:19.505Z,2.10
2023-01-15T10:41:07.754Z,2.05
2023-01-15T10:43:48.327Z,2.00
2023-01-15T10:46:18.984Z,2.10
2023-01-15T10:48:50.269Z,1.80
2023-01-15T10:51:21.978Z,1.88
2023-01-15T10:53:56.299Z,1.88
2023-01-15T10:56:33.024Z,2.33
2023-01-15T10:59:08.650Z,2.20
2023-01-15T11:01:36.911Z,1.88
2023-01-15T11:04:04.954Z,2.35
2023-01-15T11:06:33.583Z,2.85
2023-01-15T11:09:12.017Z,2.55
2023-01-15T11:11:58.564Z,2.05
2023-01-15T11:14:55.779Z,2.03
2023-01-15T11:17:43.236Z,2.20
2023-01-15T11:20:23.821Z,2.38
2023-01-15T11:22:52.061Z,2.35
2023-01-15T11:25:29.738Z,2.15
2023-01-15T11:27:59.661Z,2.20
2023-01-15T11:30:30.682Z,2.30
2023-01-15T11:32:59.849Z,2.17
2023-01-15T11:35:28.131Z,2.20
2023-01-15T11:38:13.939Z,2.67
2023-01-15T11:40:53.650Z,2.40
2023-01-15T11:43:40.349Z,2.50
2023-01-15T11:46:42.086Z,2.63
2023-01-15T11:49:31.555Z,2.25
2023-01-15T11:51:59.976Z,1.92
2023-01-15T11:54:28.960Z,2.10
2023-01-15T11:56:58.230Z,2.47
2023-01-15T11:59:27.013Z,2.63
2023-01-15T12:02:00.213Z,2.33
2023-01-15T12:04:34.132Z,2.22
2023-01-15T12:07:03.297Z,1.83
2023-01-15T12:09:57.138Z,2.20
2023-01-15T12:12:39.989Z,2.92
2023-01-15T12:15:23.859Z,2.50
2023-01-15T12:18:11.506Z,2.63
2023-01-15T12:20:55.672Z,2.28
2023-01-15T12:23:46.268Z,2.20
2023-01-15T12:26:21.426Z,2.45
2023-01-15T12:28:59.686Z,3.22
2023-01-15T12:31:33.700Z,2.05
2023-01-15T12:34:09.493Z,2.33
2023-01-15T12:36:42.785Z,2.55
2023-01-15T12:39:18.350Z,2.17
2023-01-15T12:42:10.841Z,2.35
2023-01-15T12:45:04.750Z,2.10
2023-01-15T12:47:39.680Z,2.78
2023-01-15T12:50:23.275Z,2.33
2023-01-15T12:52:55.729Z,2.30
2023-01-15T12:55:27.950Z,2.33
2023-01-15T12:57:58.372Z,2.53
2023-01-15T13:00:31.899Z,2.72
2023-01-15T13:03:11.424Z,2.35
2023-01-15T13:05:47.671Z,2.55
2023-01-15T13:08:22.802Z,2.60
2023-01-15T13:10:51.794Z,2.30
2023-01-15T13:13:22.964Z,2.22
2023-01-15T13:16:11.112Z,2.42
2023-01-15T13:18:49.712Z,2.50
2023-01-15T13:21:20.378Z,2.70
2023-01-15T13:24:26.223Z,3.28
2023-01-15T13:27:18.594Z,2.42
2023-01-15T13:30:01.659Z,2.72
2023-01-15T13:32:34.584Z,3.42
2023-01-15T13:35:10.577Z,2.88
2023-01-15T13:37:44.771Z,3.05
2023-01-15T13:40:19.312Z,2.90
2023-01-15T13:42:49.301Z,2.95
2023-01-15T13:45:33.753Z,3.00
2023-01-15T13:48:08.986Z,2.15
2023-01-15T13:50:41.890Z,3.08
2023-01-15T13:53:18.715Z,2.85
2023-01-15T13:55:53.597Z,3.38
2023-01-15T13:58:25.425Z,2.90
2023-01-15T14:01:09.114Z,3.30
2023-01-15T14:04:18.067Z,2.38
2023-01-15T14:06:47.614Z,2.88
2023-01-15T14:09:29.566Z,2.88
2023-01-15T14:12:10.655Z,3.67
2023-01-15T14:15:02.263Z,2.90
2023-01-15T14:17:57.771Z,2.95
2023-01-15T14:20:57.925Z,3.65
2023-01-15T14:23:45.107Z,3.50
2023-01-15T14:26:21.147Z,4.32
2023-01-15T14:28:59.943Z,4.15
2023-01-15T14:31:39.641Z,2.70
2023-01-15T14:34:14.836Z,2.25
2023-01-15T14:36:51.296Z,2.72
2023-01-15T14:39:33.322Z,2.33
2023-01-15T14:42:23.732Z,3.30
2023-01-15T14:44:59.093Z,3.33
2023-01-15T14:47:34.604Z,3.60
2023-01-15T14:50:22.275Z,3.25
2023-01-15T14:52:53.349Z,3.20
2023-01-15T14:55:22.079Z,3.10
2023-01-15T14:57:57.599Z,3.38
2023-01-15T15:00:30.833Z,2.70
2023-01-15T15:03:02.660Z,3.15
2023-01-15T15:05:32.504Z,2.80
2023-01-15T15:08:02.423Z,2.63
2023-01-15T15:10:36.604Z,2.88
2023-01-15T15:13:14.603Z,3.08
2023-01-15T15:15:49.790Z,2.67
2023-01-15T15:18:29.886Z,2.63
2023-01-15T15:21:06.309Z,3.08
2023-01-15T15:23:41.646Z,2.97
2023-01-15T15:26:22.976Z,2.80
2023-01-15T15:29:00.349Z,2.78
2023-01-15T15:31:30.171Z,3.08
2023-01-15T15:33:59.525Z,3.25
2023-01-15T15:36:29.672Z,3.28
2023-01-15T15:39:02.980Z,3.17
2023-01-15T15:41:54.426Z,3.05
2023-01-15T15:44:49.877Z,3.03
2023-01-15T15:47:40.263Z,3.47
2023-01-15T15:50:08.814Z,3.60
2023-01-15T15:52:36.675Z,3.45
2023-01-15T15:55:06.949Z,3.05
2023-01-15T15:57:36.475Z,4.20
2023-01-15T16:00:05.554Z,3.13
2023-01-15T16:02:36.617Z,4.45
2023-01-15T16:05:21.263Z,3.47
2023-01-15T16:07:49.147Z,3.50
2023-01-15T16:10:23.130Z,5.07
2023-01-15T16:12:53.866Z,4.35
2023-01-15T16:15:26.851Z,3.90
2023-01-15T16:17:55.670Z,4.00
2023-01-15T16:20:23.897Z,4.38
2023-01-15T16:22:56.973Z,3.85
2023-01-15T16:25:30.730Z,3.97
2023-01-15T16:27:59.102Z,3.47
2023-01-15T16:30:29.350Z,4.55
2023-01-15T16:33:02.499Z,3.45
2023-01-15T16:35:32.187Z,3.30
2023-01-15T16:38:02.496Z,4.40
2023-01-15T16:40:34.016Z,4.03
2023-01-15T16:43:08.977Z,2.90
2023-01-15T16:45:37.943Z,3.65
2023-01-15T16:48:27.598Z,3.40
2023-01-15T16:50:55.399Z,3.70
2023-01-15T16:53:39.564Z,3.00
2023-01-15T16:56:26.425Z,3.50
2023-01-15T16:58:54.393Z,3.10
2023-01-15T17:01:33.494Z,3.03
2023-01-15T17:04:02.586Z,3.45
2023-01-15T17:06:30.701Z,3.45
2023-01-15T17:08:59.462Z,2.60
2023-01-15T17:11:30.863Z,3.28
2023-01-15T17:14:10.139Z,3.22
2023-01-15T17:16:37.987Z,3.22
2023-01-15T17:19:08.270Z,3.58
2023-01-15T17:21:38.810Z,3.05
2023-01-15T17:24:07.861Z,3.15
2023-01-15T17:26:37.058Z,3.30
2023-01-15T17:29:06.431Z,3.33
2023-01-15T17:31:36.272Z,3.60
2023-01-15T17:34:04.840Z,3.53
2023-01-15T17:36:34.696Z,3.60
2023-01-15T17:39:02.466Z,2.55
2023-01-15T17:41:30.732Z,3.30
2023-01-15T17:43:59.922Z,2.83
2023-01-15T17:46:28.816Z,3.10
2023-01-15T17:48:56.798Z,3.05
2023-01-15T17:51:24.576Z,3.17
2023-01-15T17:53:52.340Z,2.58
2023-01-15T17:56:38.299Z,2.90
2023-01-15T17:59:38.564Z,2.75
2023-01-15T18:02:31.847Z,2.70
2023-01-15T18:05:17.727Z,2.67
2023-01-15T18:07:47.094Z,2.88
2023-01-15T18:10:18.758Z,2.63
2023-01-15T18:12:46.654Z,2.97
2023-01-15T18:15:17.888Z,3.30
2023-01-15T18:17:45.816Z,3.35
2023-01-15T18:20:14.956Z,3.15
2023-01-15T18:22:42.729Z,2.88
2023-01-15T18:25:12.123Z,2.60
2023-01-15T18:27:43.370Z,3.20
2023-01-15T18:30:12.892Z,2.67
2023-01-15T18:32:42.679Z,3.25
2023-01-15T18:35:11.937Z,2.67
2023-01-15T18:37:39.773Z,2.38
2023-01-15T18:40:09.164Z,2.30
2023-01-15T18:42:56.980Z,1.98
2023-01-15T18:45:42.452Z,2.50
2023-01-15T18:48:11.788Z,2.50
2023-01-15T18:50:39.526Z,2.90
2023-01-15T18:53:08.957Z,3.25
2023-01-15T18:55:36.926Z,2.72
2023-01-15T18:58:04.715Z,2.35
2023-01-15T19:00:32.658Z,2.72
2023-01-15T19:03:00.972Z,2.88
2023-01-15T19:05:30.068Z,2.47
2023-01-15T19:07:58.134Z,3.20
2023-01-15T19:10:25.961Z,3.05
2023-01-15T19:12:53.768Z,3.17
2023-01-15T19:15:39.382Z,3.53
2023-01-15T19:18:24.829Z,2.33
2023-01-15T19:20:53.987Z,3.03
2023-01-15T19:23:22.132Z,2.70
2023-01-15T19:25:51.473Z,2.75
2023-01-15T19:28:21.886Z,2.65
2023-01-15T19:31:07.443Z,2.38
2023-01-15T19:33:37.023Z,2.78
2023-01-15T19:36:07.739Z,2.85
2023-01-15T19:38:37.958Z,3.10
2023-01-15T19:41:28.128Z,2.78
2023-01-15T19:44:13.668Z,2.90
2023-01-15T19:46:58.988Z,3.05
2023-01-15T19:49:45.050Z,2.75
2023-01-15T19:52:31.974Z,2.72
2023-01-15T19:55:00.300Z,2.97
2023-01-15T19:57:28.165Z,3.15
2023-01-15T19:59:55.992Z,2.95
2023-01-15T20:02:23.929Z,2.85
2023-01-15T20:04:52.215Z,3.17
2023-01-15T20:07:21.474Z,3.20
2023-01-15T20:09:51.426Z,4.10
2023-01-15T20:12:36.731Z,3.13
2023-01-15T20:15:04.905Z,3.30
2023-01-15T20:17:32.721Z,2.90
2023-01-15T20:20:00.796Z,2.35
2023-01-15T20:22:31.859Z,3.55
2023-01-15T20:24:59.604Z,2.80
2023-01-15T20:27:27.489Z,3.38
2023-01-15T20:29:55.728Z,2.97
2023-01-15T20:32:23.581Z,2.67
2023-01-15T20:34:51.377Z,2.92
2023-01-15T20:37:19.425Z,2.85
2023-01-15T20:39:48.934Z,3.08
2023-01-15T20:42:34.494Z,3.03
2023-01-15T20:45:07.618Z,3.28
2023-01-15T20:47:53.168Z,3.45
2023-01-15T20:50:23.364Z,2.72
2023-01-15T20:52:52.820Z,4.53
2023-01-15T20:55:23.763Z,3.58
2023-01-15T20:57:52.849Z,3.45
2023-01-15T21:00:21.989Z,3.22
2023-01-15T21:02:49.896Z,3.40
2023-01-15T21:05:20.487Z,2.90
2023-01-15T21:07:48.326Z,3.30
2023-01-15T21:10:16.174Z,3.42
2023-01-15T21:12:45.289Z,3.55
2023-01-15T21:15:13.628Z,3.03
2023-01-15T21:17:41.635Z,3.30
2023-01-15T21:20:12.231Z,3.30
2023-01-15T21:22:41.412Z,2.72
2023-01-15T21:25:10.767Z,3.45
2023-01-15T21:27:39.151Z,3.50
2023-01-15T21:30:10.898Z,3.03
2023-01-15T21:32:38.939Z,3.40
2023-01-15T21:35:07.448Z,3.40
2023-01-15T21:37:35.212Z,3.42
2023-01-15T21:40:02.987Z,3.28
2023-01-15T21:42:48.308Z,3.63
2023-01-15T21:45:17.587Z,3.55
2023-01-15T21:47:45.415Z,3.53
2023-01-15T21:50:13.354Z,3.47
2023-01-15T21:52:41.168Z,3.75
2023-01-15T21:55:09.785Z,3.47
2023-01-15T21:57:38.396Z,3.58
2023-01-15T22:00:07.818Z,3.67
2023-01-15T22:02:38.341Z,3.25
2023-01-15T22:05:08.099Z,3.13
2023-01-15T22:07:36.147Z,3.38
2023-01-15T22:10:04.151Z,2.90
2023-01-15T22:12:33.817Z,2.72
2023-01-15T22:15:01.593Z,3.45
2023-01-15T22:17:29.360Z,2.83
2023-01-15T22:19:58.581Z,3.40
2023-01-15T22:22:30.772Z,3.60
2023-01-15T22:24:58.482Z,3.13
2023-01-15T22:27:28.993Z,3.35
2023-01-15T22:29:56.856Z,2.85
2023-01-15T22:32:24.815Z,3.15
2023-01-15T22:34:53.307Z,2.80
2023-01-15T22:37:22.511Z,2.80
2023-01-15T22:39:50.352Z,3.10
2023-01-15T22:42:27.717Z,2.75
2023-01-15T22:44:59.220Z,2.63
2023-01-15T22:47:27.930Z,2.60
2023-01-15T22:49:55.856Z,3.58
2023-01-15T22:52:26.211Z,2.55
2023-01-15T22:54:54.580Z,2.72
2023-01-15T22:57:22.586Z,2.80
2023-01-15T22:59:51.343Z,3.00
2023-01-15T23:02:39.481Z,2.72
2023-01-15T23:05:08.547Z,2.50
2023-01-15T23:07:40.485Z,2.33
2023-01-15T23:10:12.059Z,2.35
2023-01-15T23:12:40.500Z,2.60
2023-01-15T23:15:12.134Z,2.50
2023-01-15T23:17:40.369Z,2.40
2023-01-15T23:20:09.859Z,2.33
2023-01-15T23:22:39.576Z,2.45
2023-01-15T23:25:09.548Z,2.70
2023-01-15T23:27:37.602Z,2.30
2023-01-15T23:30:06.959Z,2.67
2023-01-15T23:32:36.212Z,2.30
2023-01-15T23:35:04.322Z,2.30
2023-01-15T23:37:33.098Z,3.00
2023-01-15T23:40:02.388Z,2.60
2023-01-15T23:42:47.591Z,2.83
2023-01-15T23:45:33.058Z,2.75
2023-01-15T23:48:01.171Z,2.50
2023-01-15T23:50:30.296Z,2.55
2023-01-15T23:52:58.277Z,2.47
2023-01-15T23:55:27.689Z,2.72
2023-01-15T23:57:55.923Z,2.63
